createdAt,value
2018-07-27T00:01:20.558Z,17.42
2018-07-27T00:16:24.393Z,17.27
2018-07-27T00:31:28.300Z,17.18
2018-07-27T00:46:32.238Z,17.25
2018-07-27T01:01:36.080Z,17.42
2018-07-27T01:16:40.026Z,17.25
2018-07-27T01:31:43.860Z,16.91
2018-07-27T01:46:47.943Z,17.26
2018-07-27T02:01:51.728Z,17.56
2018-07-27T02:16:55.563Z,17.53
2018-07-27T02:31:59.387Z,17.22
2018-07-27T02:47:03.261Z,16.95
2018-07-27T03:02:07.254Z,17.25
2018-07-27T03:17:11.143Z,17.49
2018-07-27T03:32:14.976Z,17.62
2018-07-27T03:47:18.787Z,17.84
2018-07-27T04:02:22.634Z,18.08
2018-07-27T04:17:26.438Z,18.31
2018-07-27T04:32:30.267Z,18.41
2018-07-27T04:47:34.175Z,19.05
2018-07-27T05:02:37.981Z,19.42
2018-07-27T05:17:41.778Z,19.62
2018-07-27T05:32:45.563Z,19.96
2018-07-27T05:47:49.359Z,20.27
2018-07-27T06:02:53.203Z,20.45
2018-07-27T06:17:57.084Z,21.03
2018-07-27T06:33:00.891Z,21.77
2018-07-27T06:48:04.694Z,22.47
2018-07-27T07:03:08.533Z,22.71
2018-07-27T07:18:12.366Z,23.47
2018-07-27T07:33:16.204Z,25.00
2018-07-27T07:48:20.250Z,26.25
2018-07-27T08:03:24.044Z,27.07
2018-07-27T08:18:27.984Z,29.13
2018-07-27T08:33:32.044Z,31.05
2018-07-27T08:48:35.882Z,33.11
2018-07-27T09:03:39.766Z,35.66
2018-07-27T09:18:43.580Z,36.30
2018-07-27T09:33:47.454Z,37.12
2018-07-27T09:48:53.435Z,37.35
2018-07-27T10:03:57.283Z,34.47
2018-07-27T10:19:01.166Z,36.53
2018-07-27T10:34:05.378Z,37.01
2018-07-27T10:49:09.242Z,34.20
2018-07-27T11:04:13.372Z,36.09
2018-07-27T11:19:17.255Z,35.33
2018-07-27T11:34:21.111Z,33.27
2018-07-27T11:49:25.218Z,34.19
2018-07-27T12:04:29.128Z,30.46
2018-07-27T12:19:33.047Z,30.60
2018-07-27T12:34:37.222Z,33.49
2018-07-27T12:49:41.535Z,34.11
2018-07-27T13:04:45.712Z,32.88
2018-07-27T13:19:54.757Z,28.29
2018-07-27T13:34:59.705Z,27.07
2018-07-27T13:50:03.837Z,26.54
2018-07-27T14:05:07.883Z,25.20
2018-07-27T14:20:11.868Z,25.15
2018-07-27T14:35:15.805Z,23.67
2018-07-27T14:50:19.791Z,22.15
2018-07-27T15:05:23.790Z,22.22
2018-07-27T15:20:27.655Z,22.42
2018-07-27T15:35:31.572Z,22.84
2018-07-27T15:50:35.564Z,22.71
2018-07-27T16:05:39.714Z,22.81
2018-07-27T16:20:43.783Z,22.66
2018-07-27T16:35:47.773Z,22.81
2018-07-27T16:50:52.099Z,22.14
2018-07-27T17:05:56.134Z,21.90
2018-07-27T17:21:00.200Z,21.87
2018-07-27T17:36:04.177Z,22.12
2018-07-27T17:51:08.209Z,21.88
2018-07-27T18:06:12.074Z,21.32
2018-07-27T18:21:15.984Z,20.89
2018-07-27T18:36:19.827Z,20.65
2018-07-27T18:51:23.693Z,19.88
2018-07-27T19:06:27.631Z,19.62
2018-07-27T19:21:31.691Z,19.99
2018-07-27T19:36:35.521Z,20.28
2018-07-27T19:51:39.381Z,20.29
2018-07-27T20:06:43.340Z,20.13
2018-07-27T20:21:47.334Z,19.81
2018-07-27T20:36:51.231Z,19.73
2018-07-27T20:51:58.533Z,20.03
2018-07-27T21:07:02.436Z,20.20
2018-07-27T21:22:06.321Z,19.97
2018-07-27T21:37:10.365Z,20.05
2018-07-27T21:52:15.342Z,20.14
2018-07-27T22:07:19.271Z,20.27
2018-07-27T22:22:23.119Z,20.59
2018-07-27T22:37:27.064Z,20.21
2018-07-27T22:52:36.261Z,20.00
2018-07-27T23:07:40.080Z,19.38
2018-07-27T23:22:44.442Z,19.36
2018-07-27T23:37:48.271Z,19.15
2018-07-27T23:52:54.307Z,19.14
